Terminal Aerodrome Forecast
Issued by NWS Boston, MA

Home | Current Version | Previous Version | Text Only | Print | Product List | Glossary On
Versions: 1 2 3 4 5 6 7 8 9 10 11 12 13 14 15 16 17 18 19 20 21 22
000
FTUS41 KBOX 241137 AAB
TAFPVD
TAF AMD
KPVD 241137Z 2412/2512 04007KT P6SM SKC
     FM242000 13008KT P6SM SKC
     FM250800 02002KT 5SM BR FEW005
     FM251100 03003KT P6SM SCT150=

USA.gov is the U.S. government's official web portal to all federal, state and local government web resources and services.